sensor_id;sensor_type;location;lat;lon;timestamp;P1;durP1;ratioP1;P2;durP2;ratioP2
66272;SDS011;58450;52.150;4.466;2022-12-18T00:01:22;78.20;;;28.52;;
66272;SDS011;58450;52.150;4.466;2022-12-18T00:03:52;84.05;;;29.63;;
66272;SDS011;58450;52.150;4.466;2022-12-18T00:06:21;75.85;;;28.25;;
66272;SDS011;58450;52.150;4.466;2022-12-18T00:08:51;82.18;;;29.40;;
66272;SDS011;58450;52.150;4.466;2022-12-18T00:11:19;83.10;;;30.38;;
66272;SDS011;58450;52.150;4.466;2022-12-18T00:13:50;80.53;;;29.27;;
66272;SDS011;58450;52.150;4.466;2022-12-18T00:16:19;81.60;;;28.75;;
66272;SDS011;58450;52.150;4.466;2022-12-18T00:18:50;86.53;;;30.40;;
66272;SDS011;58450;52.150;4.466;2022-12-18T00:21:21;76.07;;;27.83;;
66272;SDS011;58450;52.150;4.466;2022-12-18T00:23:49;79.38;;;28.40;;
66272;SDS011;58450;52.150;4.466;2022-12-18T00:26:18;80.07;;;27.45;;
66272;SDS011;58450;52.150;4.466;2022-12-18T00:28:49;69.28;;;24.85;;
66272;SDS011;58450;52.150;4.466;2022-12-18T00:31:18;82.38;;;28.65;;
66272;SDS011;58450;52.150;4.466;2022-12-18T00:33:50;73.10;;;27.55;;
66272;SDS011;58450;52.150;4.466;2022-12-18T00:36:18;70.50;;;26.55;;
66272;SDS011;58450;52.150;4.466;2022-12-18T00:38:48;71.72;;;26.67;;
66272;SDS011;58450;52.150;4.466;2022-12-18T00:41:16;72.95;;;26.67;;
66272;SDS011;58450;52.150;4.466;2022-12-18T00:44:05;74.32;;;27.55;;
66272;SDS011;58450;52.150;4.466;2022-12-18T00:46:36;73.45;;;26.58;;
66272;SDS011;58450;52.150;4.466;2022-12-18T00:49:04;79.35;;;28.17;;
66272;SDS011;58450;52.150;4.466;2022-12-18T00:51:32;81.00;;;28.38;;
66272;SDS011;58450;52.150;4.466;2022-12-18T00:54:00;80.53;;;27.33;;
66272;SDS011;58450;52.150;4.466;2022-12-18T00:56:28;82.57;;;29.52;;
66272;SDS011;58450;52.150;4.466;2022-12-18T00:58:55;87.63;;;30.65;;
66272;SDS011;58450;52.150;4.466;2022-12-18T01:01:23;79.70;;;28.73;;
66272;SDS011;58450;52.150;4.466;2022-12-18T01:03:52;74.63;;;25.60;;
66272;SDS011;58450;52.150;4.466;2022-12-18T01:06:19;75.35;;;25.70;;
66272;SDS011;58450;52.150;4.466;2022-12-18T01:08:47;71.97;;;24.50;;
66272;SDS011;58450;52.150;4.466;2022-12-18T01:11:15;78.97;;;26.65;;
66272;SDS011;58450;52.150;4.466;2022-12-18T01:13:46;74.05;;;25.25;;
66272;SDS011;58450;52.150;4.466;2022-12-18T01:16:14;78.95;;;27.35;;
66272;SDS011;58450;52.150;4.466;2022-12-18T01:18:43;80.50;;;25.95;;
66272;SDS011;58450;52.150;4.466;2022-12-18T01:21:13;87.50;;;26.90;;
66272;SDS011;58450;52.150;4.466;2022-12-18T01:23:42;93.03;;;29.35;;
66272;SDS011;58450;52.150;4.466;2022-12-18T01:26:12;82.00;;;27.13;;
66272;SDS011;58450;52.150;4.466;2022-12-18T01:28:42;94.85;;;27.48;;
66272;SDS011;58450;52.150;4.466;2022-12-18T01:31:11;74.13;;;24.88;;
66272;SDS011;58450;52.150;4.466;2022-12-18T01:33:47;75.45;;;25.55;;
66272;SDS011;58450;52.150;4.466;2022-12-18T01:36:18;77.68;;;26.08;;
66272;SDS011;58450;52.150;4.466;2022-12-18T01:38:47;79.53;;;25.05;;
66272;SDS011;58450;52.150;4.466;2022-12-18T01:41:16;76.30;;;26.65;;
66272;SDS011;58450;52.150;4.466;2022-12-18T01:43:48;77.70;;;26.10;;
66272;SDS011;58450;52.150;4.466;2022-12-18T01:46:20;77.03;;;25.85;;
66272;SDS011;58450;52.150;4.466;2022-12-18T01:48:52;72.00;;;25.58;;
66272;SDS011;58450;52.150;4.466;2022-12-18T01:51:25;76.82;;;26.13;;
66272;SDS011;58450;52.150;4.466;2022-12-18T01:53:56;70.30;;;24.92;;
66272;SDS011;58450;52.150;4.466;2022-12-18T01:56:26;74.30;;;25.52;;
66272;SDS011;58450;52.150;4.466;2022-12-18T01:58:54;73.93;;;26.50;;
66272;SDS011;58450;52.150;4.466;2022-12-18T02:01:29;73.38;;;26.55;;
66272;SDS011;58450;52.150;4.466;2022-12-18T02:04:13;74.53;;;25.25;;
66272;SDS011;58450;52.150;4.466;2022-12-18T02:06:50;67.05;;;24.63;;
66272;SDS011;58450;52.150;4.466;2022-12-18T02:09:28;74.85;;;25.48;;
66272;SDS011;58450;52.150;4.466;2022-12-18T02:12:06;73.38;;;26.17;;
66272;SDS011;58450;52.150;4.466;2022-12-18T02:14:45;81.20;;;27.17;;
66272;SDS011;58450;52.150;4.466;2022-12-18T02:17:27;76.90;;;25.45;;
66272;SDS011;58450;52.150;4.466;2022-12-18T02:20:05;67.63;;;24.73;;
66272;SDS011;58450;52.150;4.466;2022-12-18T02:22:46;66.70;;;22.88;;
66272;SDS011;58450;52.150;4.466;2022-12-18T02:28:40;65.75;;;23.35;;
66272;SDS011;58450;52.150;4.466;2022-12-18T02:31:14;66.03;;;22.48;;
66272;SDS011;58450;52.150;4.466;2022-12-18T02:33:48;70.68;;;24.70;;
66272;SDS011;58450;52.150;4.466;2022-12-18T02:36:17;59.67;;;22.48;;
66272;SDS011;58450;52.150;4.466;2022-12-18T02:38:48;60.75;;;21.23;;
66272;SDS011;58450;52.150;4.466;2022-12-18T02:41:21;58.97;;;23.52;;
66272;SDS011;58450;52.150;4.466;2022-12-18T02:43:53;57.30;;;21.80;;
66272;SDS011;58450;52.150;4.466;2022-12-18T02:46:25;59.08;;;22.50;;
66272;SDS011;58450;52.150;4.466;2022-12-18T02:49:02;64.00;;;23.83;;
66272;SDS011;58450;52.150;4.466;2022-12-18T02:54:21;54.38;;;20.10;;
66272;SDS011;58450;52.150;4.466;2022-12-18T02:57:05;57.85;;;22.33;;
66272;SDS011;58450;52.150;4.466;2022-12-18T02:59:46;67.03;;;24.60;;
66272;SDS011;58450;52.150;4.466;2022-12-18T03:02:26;61.58;;;22.63;;
66272;SDS011;58450;52.150;4.466;2022-12-18T03:05:03;58.90;;;21.83;;
66272;SDS011;58450;52.150;4.466;2022-12-18T03:07:38;62.13;;;22.75;;
66272;SDS011;58450;52.150;4.466;2022-12-18T03:10:19;61.47;;;22.58;;
66272;SDS011;58450;52.150;4.466;2022-12-18T03:12:58;53.88;;;21.88;;
66272;SDS011;58450;52.150;4.466;2022-12-18T03:15:33;59.53;;;23.35;;
66272;SDS011;58450;52.150;4.466;2022-12-18T03:18:07;63.65;;;24.08;;
66272;SDS011;58450;52.150;4.466;2022-12-18T03:20:42;55.92;;;21.58;;
66272;SDS011;58450;52.150;4.466;2022-12-18T03:23:14;59.55;;;22.00;;
66272;SDS011;58450;52.150;4.466;2022-12-18T03:25:47;51.58;;;21.38;;
66272;SDS011;58450;52.150;4.466;2022-12-18T03:28:21;54.70;;;21.13;;
66272;SDS011;58450;52.150;4.466;2022-12-18T03:30:50;53.30;;;21.45;;
66272;SDS011;58450;52.150;4.466;2022-12-18T03:33:25;54.42;;;21.02;;
66272;SDS011;58450;52.150;4.466;2022-12-18T03:35:59;54.90;;;21.52;;
66272;SDS011;58450;52.150;4.466;2022-12-18T03:38:27;57.65;;;21.52;;
66272;SDS011;58450;52.150;4.466;2022-12-18T03:40:56;56.22;;;22.60;;
66272;SDS011;58450;52.150;4.466;2022-12-18T03:43:39;61.17;;;23.17;;
66272;SDS011;58450;52.150;4.466;2022-12-18T03:46:17;50.20;;;20.63;;
66272;SDS011;58450;52.150;4.466;2022-12-18T03:48:59;60.08;;;21.10;;
66272;SDS011;58450;52.150;4.466;2022-12-18T03:51:37;63.63;;;23.80;;
66272;SDS011;58450;52.150;4.466;2022-12-18T03:54:10;69.43;;;23.55;;
66272;SDS011;58450;52.150;4.466;2022-12-18T03:56:41;67.57;;;23.95;;
66272;SDS011;58450;52.150;4.466;2022-12-18T03:59:16;71.85;;;23.80;;
66272;SDS011;58450;52.150;4.466;2022-12-18T04:01:47;74.35;;;26.02;;
66272;SDS011;58450;52.150;4.466;2022-12-18T04:04:19;69.68;;;24.00;;
66272;SDS011;58450;52.150;4.466;2022-12-18T04:06:49;64.20;;;22.70;;
66272;SDS011;58450;52.150;4.466;2022-12-18T04:09:19;65.90;;;23.20;;
66272;SDS011;58450;52.150;4.466;2022-12-18T04:11:47;64.57;;;23.63;;
66272;SDS011;58450;52.150;4.466;2022-12-18T04:14:16;62.70;;;22.70;;
66272;SDS011;58450;52.150;4.466;2022-12-18T04:16:44;71.38;;;24.85;;
66272;SDS011;58450;52.150;4.466;2022-12-18T04:19:11;68.85;;;23.88;;
66272;SDS011;58450;52.150;4.466;2022-12-18T04:21:39;70.75;;;23.05;;
66272;SDS011;58450;52.150;4.466;2022-12-18T04:24:07;70.78;;;21.95;;
66272;SDS011;58450;52.150;4.466;2022-12-18T04:26:34;69.18;;;24.08;;
66272;SDS011;58450;52.150;4.466;2022-12-18T04:29:02;67.95;;;23.20;;
66272;SDS011;58450;52.150;4.466;2022-12-18T04:31:31;72.20;;;24.17;;
66272;SDS011;58450;52.150;4.466;2022-12-18T04:33:58;66.53;;;23.95;;
66272;SDS011;58450;52.150;4.466;2022-12-18T04:36:26;67.95;;;23.85;;
66272;SDS011;58450;52.150;4.466;2022-12-18T04:38:54;72.32;;;24.83;;
66272;SDS011;58450;52.150;4.466;2022-12-18T04:41:22;78.47;;;25.70;;
66272;SDS011;58450;52.150;4.466;2022-12-18T04:43:49;75.32;;;25.90;;
66272;SDS011;58450;52.150;4.466;2022-12-18T04:46:17;70.18;;;23.77;;
66272;SDS011;58450;52.150;4.466;2022-12-18T04:48:46;73.60;;;24.65;;
66272;SDS011;58450;52.150;4.466;2022-12-18T04:51:13;75.68;;;23.75;;
66272;SDS011;58450;52.150;4.466;2022-12-18T04:53:41;66.28;;;22.38;;
66272;SDS011;58450;52.150;4.466;2022-12-18T04:56:10;68.72;;;24.25;;
66272;SDS011;58450;52.150;4.466;2022-12-18T04:58:41;66.28;;;22.70;;
66272;SDS011;58450;52.150;4.466;2022-12-18T05:01:11;64.25;;;22.23;;
66272;SDS011;58450;52.150;4.466;2022-12-18T05:03:40;67.85;;;23.27;;
66272;SDS011;58450;52.150;4.466;2022-12-18T05:06:09;65.65;;;22.95;;
66272;SDS011;58450;52.150;4.466;2022-12-18T05:08:37;65.68;;;22.65;;
66272;SDS011;58450;52.150;4.466;2022-12-18T05:11:06;75.70;;;25.17;;
66272;SDS011;58450;52.150;4.466;2022-12-18T05:13:35;64.63;;;22.10;;
66272;SDS011;58450;52.150;4.466;2022-12-18T05:16:04;63.80;;;23.80;;
66272;SDS011;58450;52.150;4.466;2022-12-18T05:18:33;67.47;;;22.33;;
66272;SDS011;58450;52.150;4.466;2022-12-18T05:21:01;53.55;;;20.75;;
66272;SDS011;58450;52.150;4.466;2022-12-18T05:23:31;61.15;;;21.83;;
66272;SDS011;58450;52.150;4.466;2022-12-18T05:25:59;61.00;;;20.95;;
66272;SDS011;58450;52.150;4.466;2022-12-18T05:28:29;55.95;;;20.98;;
66272;SDS011;58450;52.150;4.466;2022-12-18T05:31:00;59.63;;;20.83;;
66272;SDS011;58450;52.150;4.466;2022-12-18T05:33:30;57.45;;;22.48;;
66272;SDS011;58450;52.150;4.466;2022-12-18T05:36:01;61.95;;;22.73;;
66272;SDS011;58450;52.150;4.466;2022-12-18T05:38:34;58.50;;;22.02;;
66272;SDS011;58450;52.150;4.466;2022-12-18T05:41:04;56.35;;;20.95;;
66272;SDS011;58450;52.150;4.466;2022-12-18T05:43:33;56.20;;;19.98;;
66272;SDS011;58450;52.150;4.466;2022-12-18T05:46:03;50.30;;;19.88;;
66272;SDS011;58450;52.150;4.466;2022-12-18T05:48:32;51.28;;;19.83;;
66272;SDS011;58450;52.150;4.466;2022-12-18T05:51:04;50.08;;;18.90;;
66272;SDS011;58450;52.150;4.466;2022-12-18T05:53:35;50.42;;;19.92;;
66272;SDS011;58450;52.150;4.466;2022-12-18T05:56:04;49.53;;;19.98;;
66272;SDS011;58450;52.150;4.466;2022-12-18T05:58:35;57.00;;;20.85;;
66272;SDS011;58450;52.150;4.466;2022-12-18T06:01:06;49.72;;;19.73;;
66272;SDS011;58450;52.150;4.466;2022-12-18T06:03:37;46.35;;;19.02;;
66272;SDS011;58450;52.150;4.466;2022-12-18T06:06:12;44.25;;;17.80;;
66272;SDS011;58450;52.150;4.466;2022-12-18T06:08:43;46.15;;;19.50;;
66272;SDS011;58450;52.150;4.466;2022-12-18T06:11:11;49.78;;;20.20;;
66272;SDS011;58450;52.150;4.466;2022-12-18T06:13:38;55.42;;;19.70;;
66272;SDS011;58450;52.150;4.466;2022-12-18T06:16:06;59.75;;;21.75;;
66272;SDS011;58450;52.150;4.466;2022-12-18T06:18:36;56.70;;;21.73;;
66272;SDS011;58450;52.150;4.466;2022-12-18T06:21:05;55.85;;;21.08;;
66272;SDS011;58450;52.150;4.466;2022-12-18T06:23:32;65.82;;;22.98;;
66272;SDS011;58450;52.150;4.466;2022-12-18T06:26:04;63.08;;;23.42;;
66272;SDS011;58450;52.150;4.466;2022-12-18T06:28:33;58.83;;;22.85;;
66272;SDS011;58450;52.150;4.466;2022-12-18T06:31:02;59.47;;;23.00;;
66272;SDS011;58450;52.150;4.466;2022-12-18T06:33:30;61.97;;;23.90;;
66272;SDS011;58450;52.150;4.466;2022-12-18T06:35:59;63.45;;;23.42;;
66272;SDS011;58450;52.150;4.466;2022-12-18T06:38:30;61.97;;;23.75;;
66272;SDS011;58450;52.150;4.466;2022-12-18T06:40:58;66.70;;;23.92;;
66272;SDS011;58450;52.150;4.466;2022-12-18T06:43:27;63.92;;;24.52;;
66272;SDS011;58450;52.150;4.466;2022-12-18T06:45:57;52.55;;;21.88;;
66272;SDS011;58450;52.150;4.466;2022-12-18T06:48:26;63.33;;;24.15;;
66272;SDS011;58450;52.150;4.466;2022-12-18T06:50:54;64.65;;;24.73;;
66272;SDS011;58450;52.150;4.466;2022-12-18T06:53:21;60.38;;;22.17;;
66272;SDS011;58450;52.150;4.466;2022-12-18T06:55:49;57.00;;;22.48;;
66272;SDS011;58450;52.150;4.466;2022-12-18T06:58:17;59.03;;;22.67;;
66272;SDS011;58450;52.150;4.466;2022-12-18T07:00:46;54.72;;;22.10;;
66272;SDS011;58450;52.150;4.466;2022-12-18T07:03:13;61.45;;;24.38;;
66272;SDS011;58450;52.150;4.466;2022-12-18T07:05:41;56.65;;;22.50;;
66272;SDS011;58450;52.150;4.466;2022-12-18T07:08:08;50.80;;;21.73;;
66272;SDS011;58450;52.150;4.466;2022-12-18T07:10:40;55.65;;;21.20;;
66272;SDS011;58450;52.150;4.466;2022-12-18T07:13:09;58.13;;;21.90;;
66272;SDS011;58450;52.150;4.466;2022-12-18T07:15:36;49.60;;;21.05;;
66272;SDS011;58450;52.150;4.466;2022-12-18T07:18:05;53.10;;;21.55;;
66272;SDS011;58450;52.150;4.466;2022-12-18T07:20:33;59.95;;;23.00;;
66272;SDS011;58450;52.150;4.466;2022-12-18T07:23:01;52.28;;;21.45;;
66272;SDS011;58450;52.150;4.466;2022-12-18T07:25:29;49.63;;;22.52;;
66272;SDS011;58450;52.150;4.466;2022-12-18T07:27:57;55.58;;;22.70;;
66272;SDS011;58450;52.150;4.466;2022-12-18T07:30:24;52.30;;;22.05;;
66272;SDS011;58450;52.150;4.466;2022-12-18T07:32:52;50.47;;;21.73;;
66272;SDS011;58450;52.150;4.466;2022-12-18T07:35:20;52.90;;;21.52;;
66272;SDS011;58450;52.150;4.466;2022-12-18T07:37:48;50.33;;;20.23;;
66272;SDS011;58450;52.150;4.466;2022-12-18T07:40:15;49.90;;;19.75;;
66272;SDS011;58450;52.150;4.466;2022-12-18T07:42:43;47.85;;;20.88;;
66272;SDS011;58450;52.150;4.466;2022-12-18T07:45:10;47.60;;;20.83;;
66272;SDS011;58450;52.150;4.466;2022-12-18T07:47:38;51.00;;;20.38;;
66272;SDS011;58450;52.150;4.466;2022-12-18T07:50:07;48.13;;;20.98;;
66272;SDS011;58450;52.150;4.466;2022-12-18T07:52:36;47.33;;;21.20;;
66272;SDS011;58450;52.150;4.466;2022-12-18T07:55:04;49.00;;;20.50;;
66272;SDS011;58450;52.150;4.466;2022-12-18T07:57:32;42.50;;;18.48;;
66272;SDS011;58450;52.150;4.466;2022-12-18T08:00:00;47.85;;;20.38;;
66272;SDS011;58450;52.150;4.466;2022-12-18T08:02:29;44.28;;;19.67;;
66272;SDS011;58450;52.150;4.466;2022-12-18T08:04:57;50.00;;;21.17;;
66272;SDS011;58450;52.150;4.466;2022-12-18T08:07:25;40.65;;;19.30;;
66272;SDS011;58450;52.150;4.466;2022-12-18T08:09:54;44.10;;;20.25;;
66272;SDS011;58450;52.150;4.466;2022-12-18T08:12:21;41.33;;;18.73;;
66272;SDS011;58450;52.150;4.466;2022-12-18T08:14:49;41.05;;;19.17;;
66272;SDS011;58450;52.150;4.466;2022-12-18T08:17:17;42.30;;;21.15;;
66272;SDS011;58450;52.150;4.466;2022-12-18T08:19:46;47.58;;;22.15;;
66272;SDS011;58450;52.150;4.466;2022-12-18T08:22:14;44.08;;;20.70;;
66272;SDS011;58450;52.150;4.466;2022-12-18T08:24:41;43.35;;;20.27;;
66272;SDS011;58450;52.150;4.466;2022-12-18T08:27:10;41.80;;;19.98;;
66272;SDS011;58450;52.150;4.466;2022-12-18T08:29:38;40.33;;;19.35;;
66272;SDS011;58450;52.150;4.466;2022-12-18T08:32:05;45.17;;;19.67;;
66272;SDS011;58450;52.150;4.466;2022-12-18T08:34:33;38.90;;;18.67;;
66272;SDS011;58450;52.150;4.466;2022-12-18T08:37:01;43.33;;;20.52;;
66272;SDS011;58450;52.150;4.466;2022-12-18T08:39:29;39.78;;;20.65;;
66272;SDS011;58450;52.150;4.466;2022-12-18T08:41:56;40.03;;;19.67;;
66272;SDS011;58450;52.150;4.466;2022-12-18T08:44:43;39.40;;;18.88;;
66272;SDS011;58450;52.150;4.466;2022-12-18T08:47:10;37.10;;;19.42;;
66272;SDS011;58450;52.150;4.466;2022-12-18T08:49:38;41.97;;;19.88;;
66272;SDS011;58450;52.150;4.466;2022-12-18T08:52:06;39.85;;;20.23;;
66272;SDS011;58450;52.150;4.466;2022-12-18T08:54:33;40.47;;;20.70;;
66272;SDS011;58450;52.150;4.466;2022-12-18T08:57:01;36.90;;;19.58;;
66272;SDS011;58450;52.150;4.466;2022-12-18T08:59:28;37.60;;;20.08;;
66272;SDS011;58450;52.150;4.466;2022-12-18T09:01:57;38.08;;;19.70;;
66272;SDS011;58450;52.150;4.466;2022-12-18T09:04:25;36.90;;;19.83;;
66272;SDS011;58450;52.150;4.466;2022-12-18T09:06:52;40.08;;;19.80;;
66272;SDS011;58450;52.150;4.466;2022-12-18T09:09:23;36.85;;;18.30;;
66272;SDS011;58450;52.150;4.466;2022-12-18T09:11:50;33.58;;;17.77;;
66272;SDS011;58450;52.150;4.466;2022-12-18T09:14:18;34.63;;;18.27;;
66272;SDS011;58450;52.150;4.466;2022-12-18T09:16:45;35.72;;;18.58;;
66272;SDS011;58450;52.150;4.466;2022-12-18T09:19:14;34.03;;;17.95;;
66272;SDS011;58450;52.150;4.466;2022-12-18T09:21:42;33.97;;;18.20;;
66272;SDS011;58450;52.150;4.466;2022-12-18T09:24:10;37.30;;;19.67;;
66272;SDS011;58450;52.150;4.466;2022-12-18T09:26:40;34.35;;;17.95;;
66272;SDS011;58450;52.150;4.466;2022-12-18T09:29:08;35.33;;;18.35;;
66272;SDS011;58450;52.150;4.466;2022-12-18T09:31:36;37.50;;;19.25;;
66272;SDS011;58450;52.150;4.466;2022-12-18T09:34:05;33.65;;;17.73;;
66272;SDS011;58450;52.150;4.466;2022-12-18T09:36:34;36.53;;;18.38;;
66272;SDS011;58450;52.150;4.466;2022-12-18T09:39:02;35.47;;;18.58;;
66272;SDS011;58450;52.150;4.466;2022-12-18T09:41:40;33.83;;;17.95;;
66272;SDS011;58450;52.150;4.466;2022-12-18T09:44:23;37.08;;;17.50;;
66272;SDS011;58450;52.150;4.466;2022-12-18T09:46:57;34.53;;;17.38;;
66272;SDS011;58450;52.150;4.466;2022-12-18T09:49:39;31.33;;;16.60;;
66272;SDS011;58450;52.150;4.466;2022-12-18T09:52:14;31.83;;;16.98;;
66272;SDS011;58450;52.150;4.466;2022-12-18T09:54:50;30.20;;;16.17;;
66272;SDS011;58450;52.150;4.466;2022-12-18T09:57:23;33.85;;;17.33;;
66272;SDS011;58450;52.150;4.466;2022-12-18T09:59:53;32.25;;;16.80;;
66272;SDS011;58450;52.150;4.466;2022-12-18T10:02:26;35.63;;;17.42;;
66272;SDS011;58450;52.150;4.466;2022-12-18T10:05:05;31.13;;;16.40;;
66272;SDS011;58450;52.150;4.466;2022-12-18T10:07:41;31.33;;;16.08;;
66272;SDS011;58450;52.150;4.466;2022-12-18T10:10:27;30.38;;;16.00;;
66272;SDS011;58450;52.150;4.466;2022-12-18T10:13:11;31.80;;;17.00;;
66272;SDS011;58450;52.150;4.466;2022-12-18T10:16:09;29.02;;;15.75;;
66272;SDS011;58450;52.150;4.466;2022-12-18T10:18:54;29.77;;;16.20;;
66272;SDS011;58450;52.150;4.466;2022-12-18T10:21:41;29.15;;;14.88;;
66272;SDS011;58450;52.150;4.466;2022-12-18T10:24:25;31.20;;;16.20;;
66272;SDS011;58450;52.150;4.466;2022-12-18T10:27:04;33.72;;;15.13;;
66272;SDS011;58450;52.150;4.466;2022-12-18T10:29:41;28.10;;;15.05;;
66272;SDS011;58450;52.150;4.466;2022-12-18T10:32:13;28.20;;;15.52;;
66272;SDS011;58450;52.150;4.466;2022-12-18T10:34:46;30.20;;;15.63;;
66272;SDS011;58450;52.150;4.466;2022-12-18T10:37:15;27.13;;;14.85;;
66272;SDS011;58450;52.150;4.466;2022-12-18T10:39:47;31.15;;;16.77;;
66272;SDS011;58450;52.150;4.466;2022-12-18T10:42:37;29.65;;;16.30;;
66272;SDS011;58450;52.150;4.466;2022-12-18T10:45:11;30.13;;;16.48;;
66272;SDS011;58450;52.150;4.466;2022-12-18T10:47:42;29.30;;;14.98;;
66272;SDS011;58450;52.150;4.466;2022-12-18T10:50:18;28.48;;;16.00;;
66272;SDS011;58450;52.150;4.466;2022-12-18T10:52:54;31.52;;;15.93;;
66272;SDS011;58450;52.150;4.466;2022-12-18T10:55:27;32.22;;;15.93;;
66272;SDS011;58450;52.150;4.466;2022-12-18T10:58:13;25.20;;;13.90;;
66272;SDS011;58450;52.150;4.466;2022-12-18T11:01:01;29.00;;;15.30;;
66272;SDS011;58450;52.150;4.466;2022-12-18T11:03:34;28.60;;;14.95;;
66272;SDS011;58450;52.150;4.466;2022-12-18T11:06:07;31.58;;;15.57;;
66272;SDS011;58450;52.150;4.466;2022-12-18T11:08:37;31.35;;;15.98;;
66272;SDS011;58450;52.150;4.466;2022-12-18T11:11:14;26.98;;;13.85;;
66272;SDS011;58450;52.150;4.466;2022-12-18T11:13:52;30.15;;;15.40;;
66272;SDS011;58450;52.150;4.466;2022-12-18T11:16:29;31.13;;;14.98;;
66272;SDS011;58450;52.150;4.466;2022-12-18T11:19:13;30.45;;;15.20;;
66272;SDS011;58450;52.150;4.466;2022-12-18T11:24:26;29.10;;;15.23;;
66272;SDS011;58450;52.150;4.466;2022-12-18T11:26:59;28.33;;;14.75;;
66272;SDS011;58450;52.150;4.466;2022-12-18T11:29:33;27.55;;;14.50;;
66272;SDS011;58450;52.150;4.466;2022-12-18T11:32:26;32.17;;;16.45;;
66272;SDS011;58450;52.150;4.466;2022-12-18T11:35:07;30.00;;;15.80;;
66272;SDS011;58450;52.150;4.466;2022-12-18T11:37:46;30.02;;;16.27;;
66272;SDS011;58450;52.150;4.466;2022-12-18T11:40:26;30.00;;;15.85;;
66272;SDS011;58450;52.150;4.466;2022-12-18T11:43:04;30.30;;;16.67;;
66272;SDS011;58450;52.150;4.466;2022-12-18T11:45:40;28.50;;;15.60;;
66272;SDS011;58450;52.150;4.466;2022-12-18T11:48:18;29.73;;;16.05;;
66272;SDS011;58450;52.150;4.466;2022-12-18T11:50:52;29.38;;;15.10;;
66272;SDS011;58450;52.150;4.466;2022-12-18T11:53:22;30.30;;;15.93;;
66272;SDS011;58450;52.150;4.466;2022-12-18T11:56:03;27.15;;;14.57;;
66272;SDS011;58450;52.150;4.466;2022-12-18T11:58:55;30.70;;;15.60;;
66272;SDS011;58450;52.150;4.466;2022-12-18T12:01:38;29.30;;;16.83;;
66272;SDS011;58450;52.150;4.466;2022-12-18T12:04:30;29.40;;;16.25;;
66272;SDS011;58450;52.150;4.466;2022-12-18T12:07:18;29.05;;;15.45;;
66272;SDS011;58450;52.150;4.466;2022-12-18T12:10:12;32.60;;;16.55;;
66272;SDS011;58450;52.150;4.466;2022-12-18T12:13:00;31.55;;;16.38;;
66272;SDS011;58450;52.150;4.466;2022-12-18T12:15:50;31.00;;;15.00;;
66272;SDS011;58450;52.150;4.466;2022-12-18T12:18:39;28.70;;;15.27;;
66272;SDS011;58450;52.150;4.466;2022-12-18T12:21:24;28.38;;;14.68;;
66272;SDS011;58450;52.150;4.466;2022-12-18T12:24:10;27.65;;;14.75;;
66272;SDS011;58450;52.150;4.466;2022-12-18T12:27:02;25.40;;;14.32;;
66272;SDS011;58450;52.150;4.466;2022-12-18T12:29:46;27.33;;;14.75;;
66272;SDS011;58450;52.150;4.466;2022-12-18T12:32:40;30.90;;;15.63;;
66272;SDS011;58450;52.150;4.466;2022-12-18T12:35:25;28.05;;;15.63;;
66272;SDS011;58450;52.150;4.466;2022-12-18T12:38:06;27.48;;;14.65;;
66272;SDS011;58450;52.150;4.466;2022-12-18T12:40:42;29.20;;;15.98;;
66272;SDS011;58450;52.150;4.466;2022-12-18T12:43:19;27.58;;;14.90;;
66272;SDS011;58450;52.150;4.466;2022-12-18T12:45:58;29.77;;;15.55;;
66272;SDS011;58450;52.150;4.466;2022-12-18T12:48:35;30.52;;;16.17;;
66272;SDS011;58450;52.150;4.466;2022-12-18T12:51:12;26.40;;;14.35;;
66272;SDS011;58450;52.150;4.466;2022-12-18T12:53:46;28.02;;;15.50;;
66272;SDS011;58450;52.150;4.466;2022-12-18T12:56:16;26.45;;;14.20;;
66272;SDS011;58450;52.150;4.466;2022-12-18T12:58:51;28.48;;;15.48;;
66272;SDS011;58450;52.150;4.466;2022-12-18T13:01:33;26.77;;;15.38;;
66272;SDS011;58450;52.150;4.466;2022-12-18T13:04:12;31.02;;;15.75;;
66272;SDS011;58450;52.150;4.466;2022-12-18T13:06:53;26.77;;;14.90;;
66272;SDS011;58450;52.150;4.466;2022-12-18T13:09:31;31.85;;;16.48;;
66272;SDS011;58450;52.150;4.466;2022-12-18T13:12:01;30.05;;;16.08;;
66272;SDS011;58450;52.150;4.466;2022-12-18T13:14:48;30.33;;;15.80;;
66272;SDS011;58450;52.150;4.466;2022-12-18T13:17:17;30.10;;;15.18;;
66272;SDS011;58450;52.150;4.466;2022-12-18T13:20:04;33.50;;;15.80;;
66272;SDS011;58450;52.150;4.466;2022-12-18T13:22:37;27.90;;;14.75;;
66272;SDS011;58450;52.150;4.466;2022-12-18T13:28:10;28.92;;;14.93;;
66272;SDS011;58450;52.150;4.466;2022-12-18T13:30:52;30.77;;;16.65;;
66272;SDS011;58450;52.150;4.466;2022-12-18T13:36:28;26.98;;;14.43;;
66272;SDS011;58450;52.150;4.466;2022-12-18T13:48:16;29.10;;;15.13;;
66272;SDS011;58450;52.150;4.466;2022-12-18T13:50:55;26.95;;;14.50;;
66272;SDS011;58450;52.150;4.466;2022-12-18T13:53:29;30.25;;;14.90;;
66272;SDS011;58450;52.150;4.466;2022-12-18T13:56:04;29.23;;;14.63;;
66272;SDS011;58450;52.150;4.466;2022-12-18T13:58:32;27.35;;;15.07;;
66272;SDS011;58450;52.150;4.466;2022-12-18T14:01:00;29.35;;;15.52;;
66272;SDS011;58450;52.150;4.466;2022-12-18T14:03:30;27.23;;;14.90;;
66272;SDS011;58450;52.150;4.466;2022-12-18T14:05:59;26.50;;;14.85;;
66272;SDS011;58450;52.150;4.466;2022-12-18T14:08:35;28.83;;;15.35;;
66272;SDS011;58450;52.150;4.466;2022-12-18T14:11:07;29.02;;;15.90;;
66272;SDS011;58450;52.150;4.466;2022-12-18T14:13:48;27.27;;;15.23;;
66272;SDS011;58450;52.150;4.466;2022-12-18T14:16:17;30.10;;;15.05;;
66272;SDS011;58450;52.150;4.466;2022-12-18T14:18:45;26.70;;;14.55;;
66272;SDS011;58450;52.150;4.466;2022-12-18T14:21:21;28.83;;;15.43;;
66272;SDS011;58450;52.150;4.466;2022-12-18T14:26:42;26.85;;;14.40;;
66272;SDS011;58450;52.150;4.466;2022-12-18T14:29:21;34.38;;;15.90;;
66272;SDS011;58450;52.150;4.466;2022-12-18T14:32:04;26.20;;;14.48;;
66272;SDS011;58450;52.150;4.466;2022-12-18T14:34:38;28.95;;;15.50;;
66272;SDS011;58450;52.150;4.466;2022-12-18T14:37:07;28.80;;;15.63;;
66272;SDS011;58450;52.150;4.466;2022-12-18T14:39:38;28.75;;;15.52;;
66272;SDS011;58450;52.150;4.466;2022-12-18T14:42:09;28.90;;;15.43;;
66272;SDS011;58450;52.150;4.466;2022-12-18T14:44:38;29.38;;;15.38;;
66272;SDS011;58450;52.150;4.466;2022-12-18T14:47:12;30.30;;;15.73;;
66272;SDS011;58450;52.150;4.466;2022-12-18T14:49:42;30.85;;;16.95;;
66272;SDS011;58450;52.150;4.466;2022-12-18T14:52:17;28.00;;;15.00;;
66272;SDS011;58450;52.150;4.466;2022-12-18T14:54:54;28.55;;;14.60;;
66272;SDS011;58450;52.150;4.466;2022-12-18T14:57:22;31.25;;;15.27;;
66272;SDS011;58450;52.150;4.466;2022-12-18T14:59:52;28.05;;;14.80;;
66272;SDS011;58450;52.150;4.466;2022-12-18T15:02:30;29.40;;;15.23;;
66272;SDS011;58450;52.150;4.466;2022-12-18T15:05:00;31.40;;;16.30;;
66272;SDS011;58450;52.150;4.466;2022-12-18T15:07:39;31.90;;;16.60;;
66272;SDS011;58450;52.150;4.466;2022-12-18T15:10:11;32.47;;;15.82;;
66272;SDS011;58450;52.150;4.466;2022-12-18T15:12:42;31.38;;;17.27;;
66272;SDS011;58450;52.150;4.466;2022-12-18T15:18:15;32.20;;;16.85;;
66272;SDS011;58450;52.150;4.466;2022-12-18T15:20:47;31.40;;;16.30;;
66272;SDS011;58450;52.150;4.466;2022-12-18T15:23:18;31.33;;;16.38;;